Decoded Metar for KTCL (TUSCALOOSA in AL, USA) (IATA:TCL) | Meteo·Mobile Aviation Weather
aviador You're here:

KTCL Decoded Metar

TUSCALOOSA in AL, USA
Report Time2018-08-20 18:28:00
UTC Time2018-08-20 18:43:20
Flight Rules vfr VFR
Wind300° at 05 kt
W.Decomp.*RWY 29: 4.9 kt HW 0.9 kt RCW
RWY 22: 0.9 kt HW 4.9 kt RCW
W.Rank300° ranks 16
Current wind is below 300° avg. (6.1)
Visibility9999 m
Phenomena:N/A
Clouds:Scattered 028 Hf
Broken 037 Hf
Expected CloudBase > 2,800 ft AGL from Temp-Dew spread
Ceiling3,700 ft
Temp31°C (ISA +16)
Dew Point24°C (66% RH)
Heat Index36.4°C
QNH1016 hPa
Density Alt2,320 ft
Elevation161 ft
Report Wrong Elevation
Raw Report
KTCL 201828Z 30005KT 10SM SCT028 BKN037 31/24 A2999 RMK AO2
T03110239=

Extra information for KTCL:More info

Metar Taf Metar & Taf Last 4 Metars F.Rules Stats Wind Profile Meteogram Temp Stats Airport Information Weather charts Add Link Nearby VenuesMetar ALERT Operation Metar Decoded Social comments

AIRNAV info for KTCL